Los Angeles, CA (90091)

2:30 PM PDT on July 06, 2015 (GMT -0700)
Montebello, West side near Golf Course. | | Change Station
CLOSE
Current Station
Personal Weather Station
Location: Montebello, CA
Elevation: 231 ft
Nearby Weather Stations

Elev 231 ft 34.03 °N, 118.13 °W | Updated 17 seconds ago

Mostly Cloudy
Mostly Cloudy
81.0 °F
Feels Like 82 °F
N
5.1
Wind Variable Wind from South
Gusts 10.3 mph

Today
High -- | Low -- °F
--% Chance of Precip.
Yesterday
High -- | Low -- °F
Precip. -- in
5:47 AM 8:07 PM
Waning Gibbous, 72% visible
Pressure 30.00 in
Visibility 9.0 miles
Clouds Clear
Heat Index 82 °F
Dew Point 62 °F
Humidity 53%
Rainfall 0.00 in
Snow Depth Not available.
UV 12 out of 12
Pollen 3.10 out of 12
Air Quality Not available.
Flu Activity Not available.
METAR KCQT 062047Z AUTO VRB03KT 9SM CLR 23/16 A3001 RMK AO2 SLP159 T02280156 58016

More Conditions Fewer Conditions

Pressure 30.00 in
Visibility 9.0 miles
Clouds Clear
Heat Index 82 °F
Dew Point 62 °F
Humidity 53%
Rainfall 0.00 in
Snow Depth Not available.
UV 12 out of 12
Pollen 3.10 out of 12
Air Quality Not available.
Flu Activity Not available.
METAR KCQT 062047Z AUTO VRB03KT 9SM CLR 23/16 A3001 RMK AO2 SLP159 T02280156 58016

More Conditions Fewer Conditions

10-Day Weather Forecast

×

Almanac

Astronomy

Jul. 06, 2015 Rise Set
Actual Time
Civil Twilight
Nautical Twilight
Astronomical Twilight
Moon
Length of Visible Light
Length of Day
Tomorrow will be .
, % of the Moon is Illuminated

Today's Extremes

State Highs State Lows

Community

WunderPhotos

Upload Photos

1,835,659 photos uploaded!

WunderBlogs® & News

Nearby

Air Quality

  Air Quality AQ Index Pollutant
Not available.

Snow Depth

Station Depth Elevation

Earthquake Activity

City Distance Mag. Time & Date
Minimum magnitude displayed is 2.5.

Coastal Water Temperatures

Place Temperature

Stations

Nearby Weather Stations

Station Location Temp. Windchill Dew Point Humidity Wind Precip. Elev Updated Type